createdAt,value
2023-01-26T00:00:47.948Z,17.70
2023-01-26T00:05:41.846Z,19.50
2023-01-26T00:10:37.780Z,19.33
2023-01-26T00:15:31.030Z,19.50
2023-01-26T00:20:25.578Z,19.33
2023-01-26T00:25:18.909Z,20.13
2023-01-26T00:30:13.772Z,20.43
2023-01-26T00:35:07.766Z,20.90
2023-01-26T00:40:04.227Z,19.90
2023-01-26T00:44:57.517Z,19.30
2023-01-26T00:49:50.730Z,19.83
2023-01-26T00:54:45.846Z,19.40
2023-01-26T00:59:42.509Z,19.17
2023-01-26T01:04:35.705Z,19.10
2023-01-26T01:09:29.113Z,18.97
2023-01-26T01:14:22.467Z,18.63
2023-01-26T01:19:18.502Z,18.53
2023-01-26T01:24:12.381Z,19.63
2023-01-26T01:29:05.744Z,19.27
2023-01-26T01:33:59.189Z,20.87
2023-01-26T01:38:54.102Z,19.13
2023-01-26T01:43:47.441Z,19.90
2023-01-26T01:48:49.093Z,20.33
2023-01-26T01:53:47.471Z,18.40
2023-01-26T01:58:44.578Z,20.53
2023-01-26T02:03:39.217Z,19.70
2023-01-26T02:08:38.240Z,19.03
2023-01-26T02:13:34.777Z,21.93
2023-01-26T02:18:31.543Z,22.33
2023-01-26T02:23:37.519Z,19.73
2023-01-26T02:28:33.012Z,19.97
2023-01-26T02:33:28.462Z,20.80
2023-01-26T02:38:31.218Z,19.48
2023-01-26T02:43:26.948Z,20.20
2023-01-26T02:48:36.062Z,21.70
2023-01-26T02:53:30.440Z,20.43
2023-01-26T02:58:23.825Z,19.23
2023-01-26T03:03:20.126Z,19.40
2023-01-26T03:08:14.832Z,19.10
2023-01-26T03:13:10.814Z,20.27
2023-01-26T03:18:23.190Z,21.40
2023-01-26T03:23:35.547Z,21.57
2023-01-26T03:28:29.101Z,22.13
2023-01-26T03:33:22.714Z,20.63
2023-01-26T03:38:17.642Z,20.80
2023-01-26T03:43:32.812Z,20.60
2023-01-26T03:48:43.847Z,21.00
2023-01-26T03:53:55.975Z,20.77
2023-01-26T03:58:51.773Z,20.57
2023-01-26T04:04:03.392Z,21.53
2023-01-26T04:08:58.122Z,20.73
2023-01-26T04:14:08.779Z,20.03
2023-01-26T04:19:19.976Z,20.63
2023-01-26T04:24:18.030Z,19.87
2023-01-26T04:29:14.192Z,23.30
2023-01-26T04:34:12.990Z,20.17
2023-01-26T04:39:09.605Z,21.03
2023-01-26T04:44:06.958Z,21.80
2023-01-26T04:49:00.320Z,22.10
2023-01-26T04:53:54.383Z,21.87
2023-01-26T04:58:49.044Z,21.70
2023-01-26T05:03:44.381Z,21.73
2023-01-26T05:08:40.450Z,21.80
2023-01-26T05:13:36.171Z,22.77
2023-01-26T05:18:57.229Z,21.53
2023-01-26T05:24:09.753Z,22.77
2023-01-26T05:29:23.313Z,22.97
2023-01-26T05:34:18.642Z,23.43
2023-01-26T05:39:12.465Z,21.63
2023-01-26T05:44:08.164Z,22.90
2023-01-26T05:49:19.969Z,21.57
2023-01-26T05:54:13.826Z,23.70
2023-01-26T05:59:07.344Z,20.73
2023-01-26T06:04:00.928Z,24.00
2023-01-26T06:13:58.708Z,22.13
2023-01-26T06:18:53.677Z,23.73
2023-01-26T06:23:47.498Z,23.23
2023-01-26T06:28:42.923Z,22.60
2023-01-26T06:33:37.817Z,22.63
2023-01-26T06:38:32.901Z,22.97
2023-01-26T06:43:26.263Z,23.10
2023-01-26T06:48:20.796Z,24.00
2023-01-26T06:53:30.561Z,22.07
2023-01-26T06:58:42.207Z,25.13
2023-01-26T07:03:56.406Z,25.30
2023-01-26T07:08:50.881Z,27.43
2023-01-26T07:13:44.296Z,25.07
2023-01-26T07:18:38.019Z,25.13
2023-01-26T07:23:34.842Z,24.50
2023-01-26T07:28:30.706Z,24.03
2023-01-26T07:33:23.952Z,25.57
2023-01-26T07:38:17.046Z,24.17
2023-01-26T07:43:15.076Z,23.40
2023-01-26T07:48:15.878Z,24.60
2023-01-26T07:53:09.718Z,23.63
2023-01-26T07:58:02.949Z,31.37
2023-01-26T08:02:57.679Z,22.80
2023-01-26T08:07:50.890Z,21.33
2023-01-26T08:12:44.110Z,22.77
2023-01-26T08:17:38.624Z,22.67
2023-01-26T08:22:33.173Z,20.30
2023-01-26T08:27:26.240Z,18.77
2023-01-26T08:32:19.318Z,19.57
2023-01-26T08:37:12.594Z,21.10
2023-01-26T08:42:07.486Z,21.07
2023-01-26T08:47:00.697Z,20.03
2023-01-26T08:51:56.304Z,21.00
2023-01-26T08:56:49.579Z,20.73
2023-01-26T09:01:44.156Z,22.80
2023-01-26T09:06:37.363Z,19.90
2023-01-26T09:11:30.617Z,22.43
2023-01-26T09:16:25.223Z,21.07
2023-01-26T09:21:20.635Z,29.97
2023-01-26T09:26:13.886Z,23.93
2023-01-26T09:31:08.536Z,25.10
2023-01-26T09:36:05.455Z,22.37
2023-01-26T09:41:06.745Z,21.53
2023-01-26T09:46:07.731Z,24.63
2023-01-26T09:51:06.099Z,23.43
2023-01-26T09:56:01.421Z,26.07
2023-01-26T10:01:01.450Z,22.90
2023-01-26T10:06:02.572Z,22.70
2023-01-26T10:11:20.841Z,37.40
2023-01-26T10:16:16.433Z,31.50
2023-01-26T10:21:12.114Z,27.40
2023-01-26T10:26:14.811Z,23.20
2023-01-26T10:31:15.447Z,26.33
2023-01-26T10:36:13.631Z,25.80
2023-01-26T10:41:11.382Z,23.63
2023-01-26T10:46:05.684Z,23.07
2023-01-26T10:51:17.484Z,26.03
2023-01-26T10:56:16.338Z,28.50
2023-01-26T11:01:12.621Z,27.37
2023-01-26T11:06:14.653Z,27.50
2023-01-26T11:11:10.563Z,28.53
2023-01-26T11:16:11.649Z,26.53
2023-01-26T11:21:12.941Z,24.80
2023-01-26T11:26:41.192Z,23.40
2023-01-26T11:31:45.157Z,24.60
2023-01-26T11:36:50.851Z,22.70
2023-01-26T11:41:57.414Z,24.17
2023-01-26T11:47:02.900Z,23.80
2023-01-26T11:52:11.042Z,24.50
2023-01-26T11:57:16.430Z,23.73
2023-01-26T12:02:28.869Z,24.33
2023-01-26T12:07:28.425Z,24.57
2023-01-26T12:12:28.320Z,27.93
2023-01-26T12:17:37.833Z,27.23
2023-01-26T12:22:36.064Z,27.47
2023-01-26T12:27:36.317Z,28.57
2023-01-26T12:32:32.513Z,27.67
2023-01-26T12:37:48.459Z,25.27
2023-01-26T12:42:50.865Z,26.23
2023-01-26T12:47:49.755Z,28.93
2023-01-26T12:52:49.289Z,26.60
2023-01-26T12:57:49.234Z,27.53
2023-01-26T13:02:53.522Z,26.02
2023-01-26T13:08:01.629Z,26.17
2023-01-26T13:18:54.762Z,24.80
2023-01-26T13:23:58.208Z,25.97
2023-01-26T13:29:36.429Z,24.47
2023-01-26T13:35:03.996Z,22.17
2023-01-26T13:40:59.333Z,23.70
2023-01-26T13:46:35.100Z,22.90
2023-01-26T13:58:00.422Z,25.80
2023-01-26T14:03:05.587Z,25.07
2023-01-26T14:08:16.378Z,22.83
2023-01-26T14:13:37.447Z,25.35
2023-01-26T14:18:54.940Z,26.40
2023-01-26T14:30:15.710Z,28.40
2023-01-26T14:35:28.987Z,40.13
2023-01-26T14:53:44.051Z,27.33
2023-01-26T14:59:21.491Z,23.53
2023-01-26T15:05:12.704Z,23.33
2023-01-26T15:11:39.777Z,26.07
2023-01-26T15:17:02.267Z,25.05
2023-01-26T15:22:58.751Z,24.40
2023-01-26T15:28:50.579Z,23.23
2023-01-26T15:34:53.074Z,22.47
2023-01-26T15:40:49.863Z,21.53
2023-01-26T15:52:35.682Z,20.83
2023-01-26T16:04:04.054Z,24.33
2023-01-26T16:09:42.154Z,23.57
2023-01-26T16:21:58.209Z,26.90
2023-01-26T16:28:53.399Z,27.70
2023-01-26T16:33:38.566Z,34.42
2023-01-26T16:39:57.567Z,35.70
2023-01-26T16:50:55.480Z,30.08
2023-01-26T16:56:34.373Z,27.08
2023-01-26T17:08:15.266Z,29.93
2023-01-26T17:13:54.817Z,31.38
2023-01-26T17:32:20.204Z,34.17
2023-01-26T17:37:55.876Z,33.70
2023-01-26T17:43:47.763Z,29.07
2023-01-26T17:49:15.673Z,29.00
2023-01-26T17:55:10.901Z,28.30
2023-01-26T18:07:20.290Z,22.83
2023-01-26T18:19:54.301Z,19.43
2023-01-26T18:44:29.608Z,16.38
2023-01-26T18:50:07.568Z,16.03
2023-01-26T18:55:35.973Z,14.43
2023-01-26T19:07:20.262Z,16.30
2023-01-26T19:24:51.723Z,19.70
2023-01-26T19:30:34.457Z,17.03
2023-01-26T19:36:32.315Z,17.20
2023-01-26T19:42:21.723Z,18.03
2023-01-26T19:47:58.727Z,17.27
2023-01-26T19:53:32.199Z,18.90
2023-01-26T19:59:03.982Z,17.60
2023-01-26T20:04:14.854Z,18.13
2023-01-26T20:10:22.142Z,18.80
2023-01-26T20:29:02.666Z,14.53
2023-01-26T20:34:45.911Z,13.80
2023-01-26T20:41:06.771Z,14.80
2023-01-26T21:05:15.514Z,18.30
2023-01-26T21:11:07.328Z,19.07
2023-01-26T21:33:58.675Z,20.23
2023-01-26T21:51:02.422Z,20.60
2023-01-26T21:56:43.215Z,20.27
2023-01-26T22:07:39.157Z,20.83
2023-01-26T22:12:51.766Z,20.67
2023-01-26T22:18:14.441Z,21.53
2023-01-26T22:29:53.486Z,21.57
2023-01-26T22:35:54.464Z,21.10
2023-01-26T22:41:23.001Z,20.17
2023-01-26T22:46:42.592Z,20.67
2023-01-26T22:51:54.395Z,20.10
2023-01-26T22:57:06.107Z,28.97
2023-01-26T23:08:51.901Z,20.20
2023-01-26T23:14:15.260Z,19.93
2023-01-26T23:19:33.868Z,20.53
2023-01-26T23:24:35.767Z,20.47
2023-01-26T23:30:41.580Z,21.10
2023-01-26T23:35:48.315Z,20.20
2023-01-26T23:41:06.373Z,18.13
2023-01-26T23:46:26.623Z,18.37
2023-01-26T23:51:41.120Z,17.23
2023-01-26T23:57:10.855Z,17.00
